sensor_id;sensor_type;location;lat;lon;timestamp;P1;durP1;ratioP1;P2;durP2;ratioP2
63714;SDS011;49858;48.956;9.076;2022-09-30T00:01:34;25.40;;;12.27;;
63714;SDS011;49858;48.956;9.076;2022-09-30T00:04:05;25.10;;;13.05;;
63714;SDS011;49858;48.956;9.076;2022-09-30T00:06:36;23.70;;;13.77;;
63714;SDS011;49858;48.956;9.076;2022-09-30T00:09:04;26.98;;;13.93;;
63714;SDS011;49858;48.956;9.076;2022-09-30T00:11:33;29.75;;;15.90;;
63714;SDS011;49858;48.956;9.076;2022-09-30T00:14:05;26.90;;;14.35;;
63714;SDS011;49858;48.956;9.076;2022-09-30T00:16:35;29.55;;;13.90;;
63714;SDS011;49858;48.956;9.076;2022-09-30T00:19:03;31.20;;;14.57;;
63714;SDS011;49858;48.956;9.076;2022-09-30T00:21:32;25.77;;;13.90;;
63714;SDS011;49858;48.956;9.076;2022-09-30T00:24:00;32.50;;;14.30;;
63714;SDS011;49858;48.956;9.076;2022-09-30T00:26:29;27.77;;;14.43;;
63714;SDS011;49858;48.956;9.076;2022-09-30T00:28:57;26.55;;;14.80;;
63714;SDS011;49858;48.956;9.076;2022-09-30T00:31:28;22.80;;;13.38;;
63714;SDS011;49858;48.956;9.076;2022-09-30T00:33:58;23.92;;;13.75;;
63714;SDS011;49858;48.956;9.076;2022-09-30T00:36:38;25.88;;;13.35;;
63714;SDS011;49858;48.956;9.076;2022-09-30T00:39:10;24.85;;;13.75;;
63714;SDS011;49858;48.956;9.076;2022-09-30T00:41:40;27.05;;;15.57;;
63714;SDS011;49858;48.956;9.076;2022-09-30T00:47:23;21.00;;;11.35;;
63714;SDS011;49858;48.956;9.076;2022-09-30T00:49:56;30.73;;;13.80;;
63714;SDS011;49858;48.956;9.076;2022-09-30T00:52:27;28.23;;;13.63;;
63714;SDS011;49858;48.956;9.076;2022-09-30T00:54:55;20.98;;;11.70;;
63714;SDS011;49858;48.956;9.076;2022-09-30T00:57:25;31.13;;;14.05;;
63714;SDS011;49858;48.956;9.076;2022-09-30T00:59:54;16.15;;;8.25;;
63714;SDS011;49858;48.956;9.076;2022-09-30T01:02:23;20.55;;;11.85;;
63714;SDS011;49858;48.956;9.076;2022-09-30T01:04:51;22.38;;;12.90;;
63714;SDS011;49858;48.956;9.076;2022-09-30T01:07:20;28.48;;;13.55;;
63714;SDS011;49858;48.956;9.076;2022-09-30T01:09:50;30.75;;;14.60;;
63714;SDS011;49858;48.956;9.076;2022-09-30T01:12:19;26.63;;;14.25;;
63714;SDS011;49858;48.956;9.076;2022-09-30T01:14:49;35.08;;;16.35;;
63714;SDS011;49858;48.956;9.076;2022-09-30T01:17:20;31.08;;;14.90;;
63714;SDS011;49858;48.956;9.076;2022-09-30T01:20:05;28.77;;;16.27;;
63714;SDS011;49858;48.956;9.076;2022-09-30T01:22:55;29.27;;;14.32;;
63714;SDS011;49858;48.956;9.076;2022-09-30T01:32:00;31.37;;;15.63;;
63714;SDS011;49858;48.956;9.076;2022-09-30T01:34:38;25.58;;;14.10;;
63714;SDS011;49858;48.956;9.076;2022-09-30T01:37:13;25.15;;;14.52;;
63714;SDS011;49858;48.956;9.076;2022-09-30T01:39:48;30.77;;;15.07;;
63714;SDS011;49858;48.956;9.076;2022-09-30T01:42:24;26.00;;;15.13;;
63714;SDS011;49858;48.956;9.076;2022-09-30T01:45:00;26.27;;;13.63;;
63714;SDS011;49858;48.956;9.076;2022-09-30T01:47:39;30.02;;;15.80;;
63714;SDS011;49858;48.956;9.076;2022-09-30T01:50:12;25.45;;;14.32;;
63714;SDS011;49858;48.956;9.076;2022-09-30T01:52:47;29.00;;;15.15;;
63714;SDS011;49858;48.956;9.076;2022-09-30T01:55:23;27.95;;;14.73;;
63714;SDS011;49858;48.956;9.076;2022-09-30T01:57:57;26.20;;;13.82;;
63714;SDS011;49858;48.956;9.076;2022-09-30T02:00:31;27.75;;;15.43;;
63714;SDS011;49858;48.956;9.076;2022-09-30T02:03:05;27.95;;;15.23;;
63714;SDS011;49858;48.956;9.076;2022-09-30T02:05:39;23.50;;;13.32;;
63714;SDS011;49858;48.956;9.076;2022-09-30T02:08:11;25.83;;;13.70;;
63714;SDS011;49858;48.956;9.076;2022-09-30T02:10:44;23.58;;;12.27;;
63714;SDS011;49858;48.956;9.076;2022-09-30T02:15:50;20.98;;;9.93;;
63714;SDS011;49858;48.956;9.076;2022-09-30T02:18:24;20.27;;;9.80;;
63714;SDS011;49858;48.956;9.076;2022-09-30T02:20:56;18.35;;;10.13;;
63714;SDS011;49858;48.956;9.076;2022-09-30T02:23:27;18.02;;;10.52;;
63714;SDS011;49858;48.956;9.076;2022-09-30T02:26:00;23.95;;;11.57;;
63714;SDS011;49858;48.956;9.076;2022-09-30T02:28:31;20.95;;;11.05;;
63714;SDS011;49858;48.956;9.076;2022-09-30T02:31:01;19.25;;;11.48;;
63714;SDS011;49858;48.956;9.076;2022-09-30T02:33:32;18.00;;;10.80;;
63714;SDS011;49858;48.956;9.076;2022-09-30T02:36:04;16.92;;;10.02;;
63714;SDS011;49858;48.956;9.076;2022-09-30T02:38:35;18.05;;;10.45;;
63714;SDS011;49858;48.956;9.076;2022-09-30T02:41:07;20.33;;;11.40;;
63714;SDS011;49858;48.956;9.076;2022-09-30T02:43:37;19.40;;;10.70;;
63714;SDS011;49858;48.956;9.076;2022-09-30T02:46:07;24.15;;;12.30;;
63714;SDS011;49858;48.956;9.076;2022-09-30T02:48:44;17.88;;;10.52;;
63714;SDS011;49858;48.956;9.076;2022-09-30T02:51:18;21.73;;;10.98;;
63714;SDS011;49858;48.956;9.076;2022-09-30T02:53:52;22.75;;;10.40;;
63714;SDS011;49858;48.956;9.076;2022-09-30T02:56:30;21.38;;;10.48;;
63714;SDS011;49858;48.956;9.076;2022-09-30T02:59:09;17.33;;;10.07;;
63714;SDS011;49858;48.956;9.076;2022-09-30T03:01:37;18.50;;;9.68;;
63714;SDS011;49858;48.956;9.076;2022-09-30T03:04:08;22.00;;;10.05;;
63714;SDS011;49858;48.956;9.076;2022-09-30T03:06:39;23.67;;;12.60;;
63714;SDS011;49858;48.956;9.076;2022-09-30T03:09:07;23.60;;;12.13;;
63714;SDS011;49858;48.956;9.076;2022-09-30T03:11:35;23.58;;;12.15;;
63714;SDS011;49858;48.956;9.076;2022-09-30T03:14:08;21.75;;;13.25;;
63714;SDS011;49858;48.956;9.076;2022-09-30T03:17:04;25.33;;;11.95;;
63714;SDS011;49858;48.956;9.076;2022-09-30T03:19:54;26.20;;;12.82;;
63714;SDS011;49858;48.956;9.076;2022-09-30T03:22:37;19.25;;;11.68;;
63714;SDS011;49858;48.956;9.076;2022-09-30T03:25:22;20.42;;;11.48;;
63714;SDS011;49858;48.956;9.076;2022-09-30T03:28:02;22.35;;;11.55;;
63714;SDS011;49858;48.956;9.076;2022-09-30T03:30:36;20.17;;;12.35;;
63714;SDS011;49858;48.956;9.076;2022-09-30T03:33:15;25.38;;;11.98;;
63714;SDS011;49858;48.956;9.076;2022-09-30T03:38:24;23.10;;;10.50;;
63714;SDS011;49858;48.956;9.076;2022-09-30T03:41:02;18.77;;;10.13;;
63714;SDS011;49858;48.956;9.076;2022-09-30T03:43:35;20.87;;;10.73;;
63714;SDS011;49858;48.956;9.076;2022-09-30T03:46:08;20.75;;;11.27;;
63714;SDS011;49858;48.956;9.076;2022-09-30T03:48:48;20.92;;;12.00;;
63714;SDS011;49858;48.956;9.076;2022-09-30T03:51:20;27.73;;;12.23;;
63714;SDS011;49858;48.956;9.076;2022-09-30T03:53:50;23.95;;;12.70;;
63714;SDS011;49858;48.956;9.076;2022-09-30T03:56:23;20.98;;;12.35;;
63714;SDS011;49858;48.956;9.076;2022-09-30T03:58:52;24.83;;;12.60;;
63714;SDS011;49858;48.956;9.076;2022-09-30T04:01:20;18.00;;;10.93;;
63714;SDS011;49858;48.956;9.076;2022-09-30T04:03:48;21.85;;;12.50;;
63714;SDS011;49858;48.956;9.076;2022-09-30T04:06:18;21.75;;;13.02;;
63714;SDS011;49858;48.956;9.076;2022-09-30T04:08:49;23.48;;;12.07;;
63714;SDS011;49858;48.956;9.076;2022-09-30T04:11:19;26.48;;;13.75;;
63714;SDS011;49858;48.956;9.076;2022-09-30T04:13:47;30.52;;;13.65;;
63714;SDS011;49858;48.956;9.076;2022-09-30T04:16:14;20.38;;;12.13;;
63714;SDS011;49858;48.956;9.076;2022-09-30T04:18:42;20.63;;;11.68;;
63714;SDS011;49858;48.956;9.076;2022-09-30T04:21:11;19.30;;;10.95;;
63714;SDS011;49858;48.956;9.076;2022-09-30T04:23:42;20.17;;;10.77;;
63714;SDS011;49858;48.956;9.076;2022-09-30T04:26:10;19.02;;;10.35;;
63714;SDS011;49858;48.956;9.076;2022-09-30T04:28:40;17.33;;;10.02;;
63714;SDS011;49858;48.956;9.076;2022-09-30T04:31:09;19.17;;;10.18;;
63714;SDS011;49858;48.956;9.076;2022-09-30T04:33:38;22.50;;;10.25;;
63714;SDS011;49858;48.956;9.076;2022-09-30T04:36:06;25.75;;;10.70;;
63714;SDS011;49858;48.956;9.076;2022-09-30T04:38:34;38.35;;;11.77;;
63714;SDS011;49858;48.956;9.076;2022-09-30T04:41:04;26.15;;;11.90;;
63714;SDS011;49858;48.956;9.076;2022-09-30T04:43:33;29.58;;;12.23;;
63714;SDS011;49858;48.956;9.076;2022-09-30T04:46:01;40.50;;;12.68;;
63714;SDS011;49858;48.956;9.076;2022-09-30T04:48:28;22.95;;;12.98;;
63714;SDS011;49858;48.956;9.076;2022-09-30T04:50:57;45.33;;;13.73;;
63714;SDS011;49858;48.956;9.076;2022-09-30T04:53:26;38.70;;;14.10;;
63714;SDS011;49858;48.956;9.076;2022-09-30T04:55:57;27.45;;;13.00;;
63714;SDS011;49858;48.956;9.076;2022-09-30T04:58:27;45.35;;;12.27;;
63714;SDS011;49858;48.956;9.076;2022-09-30T05:01:02;34.10;;;12.35;;
63714;SDS011;49858;48.956;9.076;2022-09-30T05:03:31;45.50;;;13.52;;
63714;SDS011;49858;48.956;9.076;2022-09-30T05:05:59;44.97;;;13.65;;
63714;SDS011;49858;48.956;9.076;2022-09-30T05:08:28;40.40;;;13.90;;
63714;SDS011;49858;48.956;9.076;2022-09-30T05:10:57;44.25;;;13.85;;
63714;SDS011;49858;48.956;9.076;2022-09-30T05:13:30;58.20;;;13.23;;
63714;SDS011;49858;48.956;9.076;2022-09-30T05:16:00;43.35;;;13.00;;
63714;SDS011;49858;48.956;9.076;2022-09-30T05:18:28;75.93;;;15.32;;
63714;SDS011;49858;48.956;9.076;2022-09-30T05:20:56;59.72;;;14.23;;
63714;SDS011;49858;48.956;9.076;2022-09-30T05:23:24;104.10;;;16.75;;
63714;SDS011;49858;48.956;9.076;2022-09-30T05:25:53;139.70;;;17.83;;
63714;SDS011;49858;48.956;9.076;2022-09-30T05:28:21;75.53;;;15.63;;
63714;SDS011;49858;48.956;9.076;2022-09-30T05:30:51;56.20;;;15.93;;
63714;SDS011;49858;48.956;9.076;2022-09-30T05:33:23;116.90;;;18.23;;
63714;SDS011;49858;48.956;9.076;2022-09-30T05:35:51;97.53;;;18.48;;
63714;SDS011;49858;48.956;9.076;2022-09-30T05:38:18;64.43;;;16.13;;
63714;SDS011;49858;48.956;9.076;2022-09-30T05:40:46;36.90;;;15.73;;
63714;SDS011;49858;48.956;9.076;2022-09-30T05:43:14;51.22;;;16.85;;
63714;SDS011;49858;48.956;9.076;2022-09-30T05:45:42;57.08;;;18.35;;
63714;SDS011;49858;48.956;9.076;2022-09-30T05:48:19;97.55;;;17.77;;
63714;SDS011;49858;48.956;9.076;2022-09-30T05:50:48;88.68;;;15.77;;
63714;SDS011;49858;48.956;9.076;2022-09-30T05:53:16;56.50;;;16.00;;
63714;SDS011;49858;48.956;9.076;2022-09-30T05:55:44;96.65;;;16.13;;
63714;SDS011;49858;48.956;9.076;2022-09-30T05:58:13;35.53;;;14.38;;
63714;SDS011;49858;48.956;9.076;2022-09-30T06:00:42;35.95;;;17.70;;
63714;SDS011;49858;48.956;9.076;2022-09-30T06:03:13;92.38;;;17.30;;
63714;SDS011;49858;48.956;9.076;2022-09-30T06:05:41;75.35;;;18.30;;
63714;SDS011;49858;48.956;9.076;2022-09-30T06:08:10;105.85;;;19.45;;
63714;SDS011;49858;48.956;9.076;2022-09-30T06:10:39;70.90;;;21.25;;
63714;SDS011;49858;48.956;9.076;2022-09-30T06:13:08;56.72;;;20.55;;
63714;SDS011;49858;48.956;9.076;2022-09-30T06:15:36;74.35;;;20.80;;
63714;SDS011;49858;48.956;9.076;2022-09-30T06:18:06;75.70;;;20.77;;
63714;SDS011;49858;48.956;9.076;2022-09-30T06:20:36;151.70;;;22.23;;
63714;SDS011;49858;48.956;9.076;2022-09-30T06:23:04;109.53;;;21.45;;
63714;SDS011;49858;48.956;9.076;2022-09-30T06:25:32;149.30;;;21.60;;
63714;SDS011;49858;48.956;9.076;2022-09-30T06:28:00;38.08;;;17.80;;
63714;SDS011;49858;48.956;9.076;2022-09-30T06:30:30;151.30;;;21.15;;
63714;SDS011;49858;48.956;9.076;2022-09-30T06:33:00;43.33;;;16.40;;
63714;SDS011;49858;48.956;9.076;2022-09-30T06:35:28;46.95;;;18.48;;
63714;SDS011;49858;48.956;9.076;2022-09-30T06:37:57;88.03;;;19.45;;
63714;SDS011;49858;48.956;9.076;2022-09-30T06:40:25;79.60;;;21.13;;
63714;SDS011;49858;48.956;9.076;2022-09-30T06:42:57;67.30;;;22.20;;
63714;SDS011;49858;48.956;9.076;2022-09-30T06:45:26;69.20;;;21.73;;
63714;SDS011;49858;48.956;9.076;2022-09-30T06:47:58;51.72;;;19.65;;
63714;SDS011;49858;48.956;9.076;2022-09-30T06:50:27;82.55;;;20.70;;
63714;SDS011;49858;48.956;9.076;2022-09-30T06:52:56;38.40;;;14.20;;
63714;SDS011;49858;48.956;9.076;2022-09-30T06:55:25;38.03;;;16.20;;
63714;SDS011;49858;48.956;9.076;2022-09-30T06:57:53;40.30;;;17.67;;
63714;SDS011;49858;48.956;9.076;2022-09-30T07:00:21;47.78;;;18.23;;
63714;SDS011;49858;48.956;9.076;2022-09-30T07:02:49;37.65;;;17.35;;
63714;SDS011;49858;48.956;9.076;2022-09-30T07:05:17;51.80;;;19.88;;
63714;SDS011;49858;48.956;9.076;2022-09-30T07:07:45;65.03;;;21.23;;
63714;SDS011;49858;48.956;9.076;2022-09-30T07:10:15;40.45;;;17.58;;
63714;SDS011;49858;48.956;9.076;2022-09-30T07:12:43;52.40;;;19.50;;
63714;SDS011;49858;48.956;9.076;2022-09-30T07:15:10;65.00;;;20.67;;
63714;SDS011;49858;48.956;9.076;2022-09-30T07:17:39;68.93;;;19.40;;
63714;SDS011;49858;48.956;9.076;2022-09-30T07:20:07;58.53;;;20.85;;
63714;SDS011;49858;48.956;9.076;2022-09-30T07:22:34;55.05;;;21.45;;
63714;SDS011;49858;48.956;9.076;2022-09-30T07:25:03;43.75;;;18.42;;
63714;SDS011;49858;48.956;9.076;2022-09-30T07:27:33;38.35;;;17.55;;
63714;SDS011;49858;48.956;9.076;2022-09-30T07:30:02;40.13;;;16.05;;
63714;SDS011;49858;48.956;9.076;2022-09-30T07:32:39;27.90;;;14.57;;
63714;SDS011;49858;48.956;9.076;2022-09-30T07:35:07;34.55;;;16.25;;
63714;SDS011;49858;48.956;9.076;2022-09-30T07:37:35;34.63;;;16.80;;
63714;SDS011;49858;48.956;9.076;2022-09-30T07:40:04;24.00;;;13.57;;
63714;SDS011;49858;48.956;9.076;2022-09-30T07:42:37;27.38;;;14.55;;
63714;SDS011;49858;48.956;9.076;2022-09-30T07:45:11;26.33;;;14.98;;
63714;SDS011;49858;48.956;9.076;2022-09-30T07:47:42;29.73;;;15.57;;
63714;SDS011;49858;48.956;9.076;2022-09-30T07:50:15;37.00;;;16.98;;
63714;SDS011;49858;48.956;9.076;2022-09-30T07:52:42;42.05;;;16.63;;
63714;SDS011;49858;48.956;9.076;2022-09-30T07:55:10;30.88;;;16.13;;
63714;SDS011;49858;48.956;9.076;2022-09-30T07:57:39;31.00;;;15.40;;
63714;SDS011;49858;48.956;9.076;2022-09-30T08:00:07;29.50;;;15.55;;
63714;SDS011;49858;48.956;9.076;2022-09-30T08:02:55;31.25;;;16.33;;
63714;SDS011;49858;48.956;9.076;2022-09-30T08:05:23;28.23;;;14.93;;
63714;SDS011;49858;48.956;9.076;2022-09-30T08:07:51;32.63;;;16.60;;
63714;SDS011;49858;48.956;9.076;2022-09-30T08:10:19;32.42;;;17.00;;
63714;SDS011;49858;48.956;9.076;2022-09-30T08:12:48;25.88;;;13.80;;
63714;SDS011;49858;48.956;9.076;2022-09-30T08:15:22;22.35;;;12.18;;
63714;SDS011;49858;48.956;9.076;2022-09-30T08:17:50;22.00;;;11.32;;
63714;SDS011;49858;48.956;9.076;2022-09-30T08:20:17;24.10;;;12.68;;
63714;SDS011;49858;48.956;9.076;2022-09-30T08:22:50;22.88;;;11.60;;
63714;SDS011;49858;48.956;9.076;2022-09-30T08:25:19;19.55;;;11.50;;
63714;SDS011;49858;48.956;9.076;2022-09-30T08:27:48;21.70;;;11.73;;
63714;SDS011;49858;48.956;9.076;2022-09-30T08:30:17;16.10;;;10.50;;
63714;SDS011;49858;48.956;9.076;2022-09-30T08:32:44;17.15;;;10.13;;
63714;SDS011;49858;48.956;9.076;2022-09-30T08:35:12;14.70;;;10.18;;
63714;SDS011;49858;48.956;9.076;2022-09-30T08:37:40;21.10;;;11.18;;
63714;SDS011;49858;48.956;9.076;2022-09-30T08:40:09;17.80;;;11.18;;
63714;SDS011;49858;48.956;9.076;2022-09-30T08:45:46;19.23;;;11.07;;
63714;SDS011;49858;48.956;9.076;2022-09-30T08:48:28;20.73;;;11.90;;
63714;SDS011;49858;48.956;9.076;2022-09-30T08:51:07;16.23;;;10.32;;
63714;SDS011;49858;48.956;9.076;2022-09-30T08:53:48;17.10;;;10.68;;
63714;SDS011;49858;48.956;9.076;2022-09-30T08:56:18;17.75;;;11.30;;
63714;SDS011;49858;48.956;9.076;2022-09-30T08:58:52;18.88;;;9.95;;
63714;SDS011;49858;48.956;9.076;2022-09-30T09:03:55;14.98;;;9.65;;
63714;SDS011;49858;48.956;9.076;2022-09-30T09:06:26;15.93;;;9.88;;
63714;SDS011;49858;48.956;9.076;2022-09-30T09:09:18;17.58;;;11.10;;
63714;SDS011;49858;48.956;9.076;2022-09-30T09:12:00;17.83;;;10.93;;
63714;SDS011;49858;48.956;9.076;2022-09-30T09:14:41;15.63;;;10.50;;
63714;SDS011;49858;48.956;9.076;2022-09-30T09:29:54;18.30;;;11.88;;
63714;SDS011;49858;48.956;9.076;2022-09-30T09:32:31;18.60;;;10.90;;
63714;SDS011;49858;48.956;9.076;2022-09-30T09:35:05;20.67;;;11.77;;
63714;SDS011;49858;48.956;9.076;2022-09-30T09:37:43;17.83;;;10.02;;
63714;SDS011;49858;48.956;9.076;2022-09-30T09:40:38;17.55;;;10.45;;
63714;SDS011;49858;48.956;9.076;2022-09-30T09:43:24;19.65;;;11.25;;
63714;SDS011;49858;48.956;9.076;2022-09-30T09:46:01;17.20;;;9.80;;
63714;SDS011;49858;48.956;9.076;2022-09-30T09:48:37;19.77;;;9.98;;
63714;SDS011;49858;48.956;9.076;2022-09-30T09:51:09;14.73;;;10.70;;
63714;SDS011;49858;48.956;9.076;2022-09-30T09:53:49;19.40;;;10.88;;
63714;SDS011;49858;48.956;9.076;2022-09-30T09:56:18;16.60;;;10.70;;
63714;SDS011;49858;48.956;9.076;2022-09-30T09:59:03;17.88;;;10.70;;
63714;SDS011;49858;48.956;9.076;2022-09-30T10:01:36;19.58;;;9.82;;
63714;SDS011;49858;48.956;9.076;2022-09-30T10:04:06;18.80;;;11.75;;
63714;SDS011;49858;48.956;9.076;2022-09-30T10:06:47;15.48;;;10.77;;
63714;SDS011;49858;48.956;9.076;2022-09-30T10:09:21;13.82;;;10.32;;
63714;SDS011;49858;48.956;9.076;2022-09-30T10:11:51;16.15;;;9.55;;
63714;SDS011;49858;48.956;9.076;2022-09-30T10:14:39;12.63;;;8.43;;
63714;SDS011;49858;48.956;9.076;2022-09-30T10:17:18;10.55;;;7.90;;
63714;SDS011;49858;48.956;9.076;2022-09-30T10:19:48;11.98;;;8.18;;
63714;SDS011;49858;48.956;9.076;2022-09-30T10:22:19;13.02;;;8.90;;
63714;SDS011;49858;48.956;9.076;2022-09-30T10:24:51;14.93;;;9.15;;
63714;SDS011;49858;48.956;9.076;2022-09-30T10:27:34;9.60;;;7.35;;
63714;SDS011;49858;48.956;9.076;2022-09-30T10:30:02;12.80;;;9.10;;
63714;SDS011;49858;48.956;9.076;2022-09-30T10:32:32;11.70;;;8.02;;
63714;SDS011;49858;48.956;9.076;2022-09-30T10:35:02;11.52;;;8.23;;
63714;SDS011;49858;48.956;9.076;2022-09-30T10:37:32;13.07;;;8.57;;
63714;SDS011;49858;48.956;9.076;2022-09-30T10:40:00;12.68;;;9.68;;
63714;SDS011;49858;48.956;9.076;2022-09-30T10:42:32;10.73;;;8.85;;
63714;SDS011;49858;48.956;9.076;2022-09-30T10:45:03;14.23;;;9.02;;
63714;SDS011;49858;48.956;9.076;2022-09-30T10:47:36;12.77;;;8.07;;
63714;SDS011;49858;48.956;9.076;2022-09-30T10:50:11;8.50;;;6.55;;
63714;SDS011;49858;48.956;9.076;2022-09-30T10:52:45;12.25;;;5.93;;
63714;SDS011;49858;48.956;9.076;2022-09-30T10:55:25;12.32;;;7.05;;
63714;SDS011;49858;48.956;9.076;2022-09-30T10:57:56;10.73;;;7.50;;
63714;SDS011;49858;48.956;9.076;2022-09-30T11:00:28;9.60;;;6.20;;
63714;SDS011;49858;48.956;9.076;2022-09-30T11:03:01;9.93;;;6.32;;
63714;SDS011;49858;48.956;9.076;2022-09-30T11:05:34;9.50;;;6.63;;
63714;SDS011;49858;48.956;9.076;2022-09-30T11:08:08;10.30;;;5.90;;
63714;SDS011;49858;48.956;9.076;2022-09-30T11:10:46;8.45;;;5.80;;
63714;SDS011;49858;48.956;9.076;2022-09-30T11:13:19;7.65;;;5.90;;
63714;SDS011;49858;48.956;9.076;2022-09-30T11:18:28;7.95;;;5.80;;
63714;SDS011;49858;48.956;9.076;2022-09-30T11:21:01;9.60;;;4.50;;
63714;SDS011;49858;48.956;9.076;2022-09-30T11:23:34;9.05;;;5.78;;
63714;SDS011;49858;48.956;9.076;2022-09-30T11:26:06;9.02;;;5.65;;
63714;SDS011;49858;48.956;9.076;2022-09-30T11:28:49;11.18;;;5.03;;
63714;SDS011;49858;48.956;9.076;2022-09-30T11:31:29;11.07;;;5.40;;
63714;SDS011;49858;48.956;9.076;2022-09-30T11:34:07;5.50;;;3.95;;
63714;SDS011;49858;48.956;9.076;2022-09-30T11:36:45;7.43;;;6.00;;
63714;SDS011;49858;48.956;9.076;2022-09-30T11:39:29;8.38;;;5.10;;
63714;SDS011;49858;48.956;9.076;2022-09-30T11:42:09;8.63;;;5.40;;
63714;SDS011;49858;48.956;9.076;2022-09-30T11:44:46;10.35;;;5.53;;
63714;SDS011;49858;48.956;9.076;2022-09-30T11:47:29;7.88;;;5.32;;
63714;SDS011;49858;48.956;9.076;2022-09-30T11:50:16;8.27;;;4.90;;
63714;SDS011;49858;48.956;9.076;2022-09-30T11:52:56;8.40;;;5.07;;
63714;SDS011;49858;48.956;9.076;2022-09-30T11:55:36;6.70;;;4.72;;
63714;SDS011;49858;48.956;9.076;2022-09-30T11:58:15;7.57;;;5.18;;
63714;SDS011;49858;48.956;9.076;2022-09-30T12:01:09;7.75;;;5.13;;
63714;SDS011;49858;48.956;9.076;2022-09-30T12:03:47;6.32;;;5.40;;
63714;SDS011;49858;48.956;9.076;2022-09-30T12:06:23;7.38;;;5.00;;
63714;SDS011;49858;48.956;9.076;2022-09-30T12:08:56;7.00;;;5.07;;
63714;SDS011;49858;48.956;9.076;2022-09-30T12:11:29;8.65;;;5.15;;
63714;SDS011;49858;48.956;9.076;2022-09-30T12:14:03;8.98;;;5.25;;
63714;SDS011;49858;48.956;9.076;2022-09-30T12:16:38;7.82;;;4.93;;
63714;SDS011;49858;48.956;9.076;2022-09-30T12:19:10;9.57;;;4.75;;
63714;SDS011;49858;48.956;9.076;2022-09-30T12:21:48;10.05;;;5.18;;
63714;SDS011;49858;48.956;9.076;2022-09-30T12:24:23;8.07;;;5.10;;
63714;SDS011;49858;48.956;9.076;2022-09-30T12:26:56;11.52;;;5.65;;
63714;SDS011;49858;48.956;9.076;2022-09-30T12:29:25;7.90;;;6.03;;
63714;SDS011;49858;48.956;9.076;2022-09-30T12:32:22;7.82;;;5.03;;
63714;SDS011;49858;48.956;9.076;2022-09-30T12:35:11;6.85;;;4.82;;
63714;SDS011;49858;48.956;9.076;2022-09-30T12:38:07;7.47;;;4.82;;
63714;SDS011;49858;48.956;9.076;2022-09-30T12:40:50;6.22;;;4.78;;
63714;SDS011;49858;48.956;9.076;2022-09-30T12:43:35;6.07;;;4.53;;
63714;SDS011;49858;48.956;9.076;2022-09-30T12:46:29;8.80;;;4.38;;
63714;SDS011;49858;48.956;9.076;2022-09-30T12:49:15;10.43;;;4.78;;
63714;SDS011;49858;48.956;9.076;2022-09-30T12:51:47;7.07;;;4.47;;
63714;SDS011;49858;48.956;9.076;2022-09-30T12:54:21;10.50;;;5.22;;
63714;SDS011;49858;48.956;9.076;2022-09-30T12:56:53;6.28;;;4.65;;
63714;SDS011;49858;48.956;9.076;2022-09-30T12:59:25;7.05;;;4.53;;
63714;SDS011;49858;48.956;9.076;2022-09-30T13:01:56;7.80;;;4.30;;
63714;SDS011;49858;48.956;9.076;2022-09-30T13:04:30;5.05;;;3.95;;
63714;SDS011;49858;48.956;9.076;2022-09-30T13:07:10;7.00;;;4.53;;
63714;SDS011;49858;48.956;9.076;2022-09-30T13:09:56;7.82;;;4.13;;
63714;SDS011;49858;48.956;9.076;2022-09-30T13:12:26;5.43;;;4.07;;
63714;SDS011;49858;48.956;9.076;2022-09-30T13:15:36;6.72;;;4.13;;
63714;SDS011;49858;48.956;9.076;2022-09-30T13:21:21;5.88;;;3.88;;
63714;SDS011;49858;48.956;9.076;2022-09-30T13:23:50;6.07;;;3.40;;
63714;SDS011;49858;48.956;9.076;2022-09-30T13:29:34;6.82;;;2.70;;
63714;SDS011;49858;48.956;9.076;2022-09-30T13:32:05;5.13;;;2.50;;
63714;SDS011;49858;48.956;9.076;2022-09-30T13:34:54;4.40;;;2.92;;
63714;SDS011;49858;48.956;9.076;2022-09-30T13:37:34;6.00;;;2.60;;
63714;SDS011;49858;48.956;9.076;2022-09-30T13:40:13;4.68;;;2.20;;
63714;SDS011;49858;48.956;9.076;2022-09-30T13:42:59;5.63;;;2.42;;
63714;SDS011;49858;48.956;9.076;2022-09-30T13:45:30;2.58;;;2.22;;
63714;SDS011;49858;48.956;9.076;2022-09-30T13:48:06;4.35;;;2.40;;
63714;SDS011;49858;48.956;9.076;2022-09-30T13:50:42;5.97;;;3.22;;
63714;SDS011;49858;48.956;9.076;2022-09-30T13:53:19;4.72;;;3.10;;
63714;SDS011;49858;48.956;9.076;2022-09-30T13:55:52;3.53;;;2.42;;
63714;SDS011;49858;48.956;9.076;2022-09-30T13:58:32;4.68;;;2.92;;
63714;SDS011;49858;48.956;9.076;2022-09-30T14:01:11;5.53;;;2.78;;
63714;SDS011;49858;48.956;9.076;2022-09-30T14:03:51;4.00;;;2.10;;
63714;SDS011;49858;48.956;9.076;2022-09-30T14:06:32;2.80;;;2.35;;
63714;SDS011;49858;48.956;9.076;2022-09-30T14:09:17;5.47;;;2.97;;
63714;SDS011;49858;48.956;9.076;2022-09-30T14:12:03;5.75;;;2.70;;
63714;SDS011;49858;48.956;9.076;2022-09-30T14:14:52;5.32;;;2.47;;
63714;SDS011;49858;48.956;9.076;2022-09-30T14:17:37;3.03;;;2.40;;
63714;SDS011;49858;48.956;9.076;2022-09-30T14:20:19;4.32;;;2.30;;
63714;SDS011;49858;48.956;9.076;2022-09-30T14:22:57;4.57;;;2.30;;
63714;SDS011;49858;48.956;9.076;2022-09-30T14:25:24;4.40;;;2.50;;
63714;SDS011;49858;48.956;9.076;2022-09-30T14:28:01;4.97;;;1.90;;
63714;SDS011;49858;48.956;9.076;2022-09-30T14:30:35;2.85;;;2.13;;
63714;SDS011;49858;48.956;9.076;2022-09-30T14:35:36;2.97;;;2.00;;
63714;SDS011;49858;48.956;9.076;2022-09-30T14:38:07;6.60;;;2.50;;
63714;SDS011;49858;48.956;9.076;2022-09-30T14:40:47;4.70;;;2.50;;
63714;SDS011;49858;48.956;9.076;2022-09-30T14:43:20;4.65;;;2.08;;
63714;SDS011;49858;48.956;9.076;2022-09-30T14:48:22;3.42;;;2.13;;
63714;SDS011;49858;48.956;9.076;2022-09-30T14:50:58;4.85;;;2.38;;
63714;SDS011;49858;48.956;9.076;2022-09-30T14:53:32;6.07;;;3.13;;
63714;SDS011;49858;48.956;9.076;2022-09-30T14:56:01;8.65;;;3.03;;
63714;SDS011;49858;48.956;9.076;2022-09-30T14:58:36;3.92;;;2.17;;
63714;SDS011;49858;48.956;9.076;2022-09-30T15:01:10;4.15;;;2.20;;
63714;SDS011;49858;48.956;9.076;2022-09-30T15:03:43;2.90;;;1.80;;
63714;SDS011;49858;48.956;9.076;2022-09-30T15:06:17;3.08;;;1.98;;
63714;SDS011;49858;48.956;9.076;2022-09-30T15:08:46;4.95;;;2.22;;
63714;SDS011;49858;48.956;9.076;2022-09-30T15:11:17;3.28;;;2.20;;
63714;SDS011;49858;48.956;9.076;2022-09-30T15:13:46;3.92;;;2.42;;
63714;SDS011;49858;48.956;9.076;2022-09-30T15:16:27;4.68;;;2.47;;
63714;SDS011;49858;48.956;9.076;2022-09-30T15:18:57;4.10;;;2.28;;
63714;SDS011;49858;48.956;9.076;2022-09-30T15:21:26;4.00;;;1.90;;
63714;SDS011;49858;48.956;9.076;2022-09-30T15:23:57;6.03;;;3.00;;
63714;SDS011;49858;48.956;9.076;2022-09-30T15:26:26;4.05;;;2.25;;
63714;SDS011;49858;48.956;9.076;2022-09-30T15:28:55;6.45;;;2.33;;
63714;SDS011;49858;48.956;9.076;2022-09-30T15:31:23;3.42;;;2.10;;
63714;SDS011;49858;48.956;9.076;2022-09-30T15:34:02;5.93;;;2.53;;
63714;SDS011;49858;48.956;9.076;2022-09-30T15:36:31;3.95;;;2.25;;
63714;SDS011;49858;48.956;9.076;2022-09-30T15:39:01;3.20;;;1.90;;
63714;SDS011;49858;48.956;9.076;2022-09-30T15:41:30;4.43;;;2.45;;
63714;SDS011;49858;48.956;9.076;2022-09-30T15:44:07;3.72;;;2.45;;
63714;SDS011;49858;48.956;9.076;2022-09-30T15:46:58;4.55;;;2.25;;
63714;SDS011;49858;48.956;9.076;2022-09-30T15:49:30;7.30;;;2.83;;
63714;SDS011;49858;48.956;9.076;2022-09-30T15:54:54;4.43;;;2.30;;
63714;SDS011;49858;48.956;9.076;2022-09-30T15:57:37;3.70;;;2.20;;